<?xml version="1.0" encoding="UTF-8" standalone="no" ?>
<gpx xmlns="http://www.topografix.com/GPX/1/1" xmlns:xsi="http://www.w3.org/2001/XMLSchema-instance" xsi:schemaLocation="http://www.topografix.com/GPX/1/1 http://www.topografix.com/GPX/1/1/gpx.xsd" version="1.1" creator="VisuGPX - https://www.visugpx.com">
  <metadata>
    <name>Vimacé balade en Normandie Maine</name>
    <desc><![CDATA[Départ place de l'église à Vimacé
]]></desc>
  </metadata>
  <trk>
    <name><![CDATA[20180411225736-JjpmD]]></name>
    <trkseg>
      <trkpt lat="48.19547" lon="-0.21446">
        <ele>181</ele>
        <time>2018-04-09T18:39:01Z</time>
      </trkpt>
      <trkpt lat="48.19479" lon="-0.21745">
        <ele>175</ele>
        <time>2018-04-09T18:40:01Z</time>
      </trkpt>
      <trkpt lat="48.19415" lon="-0.2204">
        <ele>162</ele>
        <time>2018-04-09T18:41:01Z</time>
      </trkpt>
      <trkpt lat="48.1945" lon="-0.22068">
        <ele>164</ele>
        <time>2018-04-09T18:42:01Z</time>
      </trkpt>
      <trkpt lat="48.19424" lon="-0.222">
        <ele>165</ele>
        <time>2018-04-09T18:43:01Z</time>
      </trkpt>
      <trkpt lat="48.19411" lon="-0.22247">
        <ele>165</ele>
        <time>2018-04-09T18:44:01Z</time>
      </trkpt>
      <trkpt lat="48.19421" lon="-0.22317">
        <ele>168</ele>
        <time>2018-04-09T18:45:01Z</time>
      </trkpt>
      <trkpt lat="48.19684" lon="-0.22271">
        <ele>178</ele>
        <time>2018-04-09T18:46:01Z</time>
      </trkpt>
      <trkpt lat="48.19776" lon="-0.22277">
        <ele>180</ele>
        <time>2018-04-09T18:47:01Z</time>
      </trkpt>
      <trkpt lat="48.19921" lon="-0.22317">
        <ele>183</ele>
        <time>2018-04-09T18:48:01Z</time>
      </trkpt>
      <trkpt lat="48.19967" lon="-0.22309">
        <ele>184</ele>
        <time>2018-04-09T18:49:01Z</time>
      </trkpt>
      <trkpt lat="48.20109" lon="-0.22254">
        <ele>183</ele>
        <time>2018-04-09T18:50:01Z</time>
      </trkpt>
      <trkpt lat="48.20157" lon="-0.22189">
        <ele>185</ele>
        <time>2018-04-09T18:51:01Z</time>
      </trkpt>
      <trkpt lat="48.20202" lon="-0.22133">
        <ele>184</ele>
        <time>2018-04-09T18:52:01Z</time>
      </trkpt>
      <trkpt lat="48.20442" lon="-0.21681">
        <ele>194</ele>
        <time>2018-04-09T18:53:01Z</time>
      </trkpt>
      <trkpt lat="48.20651" lon="-0.21955">
        <ele>182</ele>
        <time>2018-04-09T18:54:01Z</time>
      </trkpt>
      <trkpt lat="48.20813" lon="-0.22066">
        <ele>171</ele>
        <time>2018-04-09T18:55:01Z</time>
      </trkpt>
      <trkpt lat="48.20745" lon="-0.2226">
        <ele>175</ele>
        <time>2018-04-09T18:56:01Z</time>
      </trkpt>
      <trkpt lat="48.20631" lon="-0.22515">
        <ele>177</ele>
        <time>2018-04-09T18:57:01Z</time>
      </trkpt>
      <trkpt lat="48.206" lon="-0.22496">
        <ele>176</ele>
        <time>2018-04-09T18:58:01Z</time>
      </trkpt>
      <trkpt lat="48.20528" lon="-0.2274">
        <ele>179</ele>
        <time>2018-04-09T18:59:01Z</time>
      </trkpt>
      <trkpt lat="48.20527" lon="-0.22825">
        <ele>181</ele>
        <time>2018-04-09T19:00:01Z</time>
      </trkpt>
      <trkpt lat="48.20468" lon="-0.22917">
        <ele>181</ele>
        <time>2018-04-09T19:01:01Z</time>
      </trkpt>
      <trkpt lat="48.20538" lon="-0.23115">
        <ele>183</ele>
        <time>2018-04-09T19:02:01Z</time>
      </trkpt>
      <trkpt lat="48.20599" lon="-0.2342">
        <ele>197</ele>
        <time>2018-04-09T19:03:01Z</time>
      </trkpt>
      <trkpt lat="48.20721" lon="-0.23879">
        <ele>226</ele>
        <time>2018-04-09T19:04:01Z</time>
      </trkpt>
      <trkpt lat="48.20783" lon="-0.2405">
        <ele>243</ele>
        <time>2018-04-09T19:05:01Z</time>
      </trkpt>
      <trkpt lat="48.20814" lon="-0.24196">
        <ele>252</ele>
        <time>2018-04-09T19:06:01Z</time>
      </trkpt>
      <trkpt lat="48.20869" lon="-0.24299">
        <ele>258</ele>
        <time>2018-04-09T19:07:01Z</time>
      </trkpt>
      <trkpt lat="48.20667" lon="-0.24599">
        <ele>258</ele>
        <time>2018-04-09T19:08:01Z</time>
      </trkpt>
      <trkpt lat="48.20643" lon="-0.2462">
        <ele>256</ele>
        <time>2018-04-09T19:09:01Z</time>
      </trkpt>
      <trkpt lat="48.20608" lon="-0.24696">
        <ele>256</ele>
        <time>2018-04-09T19:10:01Z</time>
      </trkpt>
      <trkpt lat="48.20554" lon="-0.24856">
        <ele>257</ele>
        <time>2018-04-09T19:11:01Z</time>
      </trkpt>
      <trkpt lat="48.2049" lon="-0.24992">
        <ele>260</ele>
        <time>2018-04-09T19:12:01Z</time>
      </trkpt>
      <trkpt lat="48.20397" lon="-0.25114">
        <ele>254</ele>
        <time>2018-04-09T19:13:01Z</time>
      </trkpt>
      <trkpt lat="48.20344" lon="-0.25256">
        <ele>251</ele>
        <time>2018-04-09T19:14:01Z</time>
      </trkpt>
      <trkpt lat="48.20193" lon="-0.2545">
        <ele>247</ele>
        <time>2018-04-09T19:15:01Z</time>
      </trkpt>
      <trkpt lat="48.20115" lon="-0.25624">
        <ele>246</ele>
        <time>2018-04-09T19:16:01Z</time>
      </trkpt>
      <trkpt lat="48.20023" lon="-0.25743">
        <ele>242</ele>
        <time>2018-04-09T19:17:01Z</time>
      </trkpt>
      <trkpt lat="48.19979" lon="-0.25775">
        <ele>236</ele>
        <time>2018-04-09T19:18:01Z</time>
      </trkpt>
      <trkpt lat="48.19974" lon="-0.25672">
        <ele>233</ele>
        <time>2018-04-09T19:19:01Z</time>
      </trkpt>
      <trkpt lat="48.19948" lon="-0.25711">
        <ele>230</ele>
        <time>2018-04-09T19:20:01Z</time>
      </trkpt>
      <trkpt lat="48.19916" lon="-0.25706">
        <ele>219</ele>
        <time>2018-04-09T19:21:01Z</time>
      </trkpt>
      <trkpt lat="48.19876" lon="-0.25653">
        <ele>214</ele>
        <time>2018-04-09T19:22:01Z</time>
      </trkpt>
      <trkpt lat="48.19858" lon="-0.25589">
        <ele>211</ele>
        <time>2018-04-09T19:23:01Z</time>
      </trkpt>
      <trkpt lat="48.19856" lon="-0.25513">
        <ele>206</ele>
        <time>2018-04-09T19:24:01Z</time>
      </trkpt>
      <trkpt lat="48.19963" lon="-0.25318">
        <ele>209</ele>
        <time>2018-04-09T19:25:01Z</time>
      </trkpt>
      <trkpt lat="48.19779" lon="-0.24843">
        <ele>177</ele>
        <time>2018-04-09T19:26:01Z</time>
      </trkpt>
      <trkpt lat="48.19469" lon="-0.24307">
        <ele>174</ele>
        <time>2018-04-09T19:27:01Z</time>
      </trkpt>
      <trkpt lat="48.19357" lon="-0.24166">
        <ele>157</ele>
        <time>2018-04-09T19:28:01Z</time>
      </trkpt>
      <trkpt lat="48.19364" lon="-0.2397">
        <ele>155</ele>
        <time>2018-04-09T19:29:01Z</time>
      </trkpt>
      <trkpt lat="48.19332" lon="-0.23456">
        <ele>154</ele>
        <time>2018-04-09T19:30:01Z</time>
      </trkpt>
      <trkpt lat="48.19195" lon="-0.2338">
        <ele>150</ele>
        <time>2018-04-09T19:31:01Z</time>
      </trkpt>
      <trkpt lat="48.19039" lon="-0.23212">
        <ele>158</ele>
        <time>2018-04-09T19:32:01Z</time>
      </trkpt>
      <trkpt lat="48.19012" lon="-0.23157">
        <ele>157</ele>
        <time>2018-04-09T19:33:01Z</time>
      </trkpt>
      <trkpt lat="48.18999" lon="-0.2302">
        <ele>155</ele>
        <time>2018-04-09T19:34:01Z</time>
      </trkpt>
      <trkpt lat="48.1894" lon="-0.22954">
        <ele>156</ele>
        <time>2018-04-09T19:35:01Z</time>
      </trkpt>
      <trkpt lat="48.18858" lon="-0.23093">
        <ele>152</ele>
        <time>2018-04-09T19:36:01Z</time>
      </trkpt>
      <trkpt lat="48.18681" lon="-0.23436">
        <ele>155</ele>
        <time>2018-04-09T19:37:01Z</time>
      </trkpt>
      <trkpt lat="48.18445" lon="-0.23477">
        <ele>162</ele>
        <time>2018-04-09T19:38:01Z</time>
      </trkpt>
      <trkpt lat="48.18432" lon="-0.23441">
        <ele>161</ele>
        <time>2018-04-09T19:39:01Z</time>
      </trkpt>
      <trkpt lat="48.18438" lon="-0.23408">
        <ele>159</ele>
        <time>2018-04-09T19:40:01Z</time>
      </trkpt>
      <trkpt lat="48.18392" lon="-0.23291">
        <ele>159</ele>
        <time>2018-04-09T19:41:01Z</time>
      </trkpt>
      <trkpt lat="48.18336" lon="-0.23251">
        <ele>162</ele>
        <time>2018-04-09T19:42:01Z</time>
      </trkpt>
      <trkpt lat="48.18289" lon="-0.23189">
        <ele>163</ele>
        <time>2018-04-09T19:43:01Z</time>
      </trkpt>
      <trkpt lat="48.18167" lon="-0.23112">
        <ele>170</ele>
        <time>2018-04-09T19:44:01Z</time>
      </trkpt>
      <trkpt lat="48.1812" lon="-0.23112">
        <ele>175</ele>
        <time>2018-04-09T19:45:01Z</time>
      </trkpt>
      <trkpt lat="48.18009" lon="-0.23046">
        <ele>169</ele>
        <time>2018-04-09T19:46:01Z</time>
      </trkpt>
      <trkpt lat="48.17903" lon="-0.22954">
        <ele>178</ele>
        <time>2018-04-09T19:47:01Z</time>
      </trkpt>
      <trkpt lat="48.17837" lon="-0.22839">
        <ele>191</ele>
        <time>2018-04-09T19:48:01Z</time>
      </trkpt>
      <trkpt lat="48.177" lon="-0.22949">
        <ele>196</ele>
        <time>2018-04-09T19:49:01Z</time>
      </trkpt>
      <trkpt lat="48.1758" lon="-0.23081">
        <ele>209</ele>
        <time>2018-04-09T19:50:01Z</time>
      </trkpt>
      <trkpt lat="48.17536" lon="-0.2316">
        <ele>210</ele>
        <time>2018-04-09T19:51:01Z</time>
      </trkpt>
      <trkpt lat="48.17449" lon="-0.23316">
        <ele>209</ele>
        <time>2018-04-09T19:52:01Z</time>
      </trkpt>
      <trkpt lat="48.17281" lon="-0.23656">
        <ele>220</ele>
        <time>2018-04-09T19:53:01Z</time>
      </trkpt>
      <trkpt lat="48.17267" lon="-0.23679">
        <ele>219</ele>
        <time>2018-04-09T19:54:01Z</time>
      </trkpt>
      <trkpt lat="48.17278" lon="-0.23703">
        <ele>215</ele>
        <time>2018-04-09T19:55:01Z</time>
      </trkpt>
      <trkpt lat="48.17398" lon="-0.2373">
        <ele>201</ele>
        <time>2018-04-09T19:56:01Z</time>
      </trkpt>
      <trkpt lat="48.17481" lon="-0.23777">
        <ele>190</ele>
        <time>2018-04-09T19:57:01Z</time>
      </trkpt>
      <trkpt lat="48.17572" lon="-0.23889">
        <ele>190</ele>
        <time>2018-04-09T19:58:01Z</time>
      </trkpt>
      <trkpt lat="48.17675" lon="-0.23999">
        <ele>199</ele>
        <time>2018-04-09T19:59:01Z</time>
      </trkpt>
      <trkpt lat="48.17729" lon="-0.24084">
        <ele>189</ele>
        <time>2018-04-09T20:00:01Z</time>
      </trkpt>
      <trkpt lat="48.17729" lon="-0.24322">
        <ele>172</ele>
        <time>2018-04-09T20:01:01Z</time>
      </trkpt>
      <trkpt lat="48.17677" lon="-0.2427">
        <ele>176</ele>
        <time>2018-04-09T20:02:01Z</time>
      </trkpt>
      <trkpt lat="48.17649" lon="-0.24272">
        <ele>182</ele>
        <time>2018-04-09T20:03:01Z</time>
      </trkpt>
      <trkpt lat="48.17632" lon="-0.24278">
        <ele>183</ele>
        <time>2018-04-09T20:04:01Z</time>
      </trkpt>
      <trkpt lat="48.17631" lon="-0.243">
        <ele>183</ele>
        <time>2018-04-09T20:05:01Z</time>
      </trkpt>
      <trkpt lat="48.17589" lon="-0.24295">
        <ele>185</ele>
        <time>2018-04-09T20:06:01Z</time>
      </trkpt>
      <trkpt lat="48.17552" lon="-0.24275">
        <ele>190</ele>
        <time>2018-04-09T20:07:01Z</time>
      </trkpt>
      <trkpt lat="48.17519" lon="-0.24268">
        <ele>191</ele>
        <time>2018-04-09T20:08:01Z</time>
      </trkpt>
      <trkpt lat="48.17476" lon="-0.24283">
        <ele>195</ele>
        <time>2018-04-09T20:09:01Z</time>
      </trkpt>
      <trkpt lat="48.17446" lon="-0.24308">
        <ele>196</ele>
        <time>2018-04-09T20:10:01Z</time>
      </trkpt>
      <trkpt lat="48.17397" lon="-0.24318">
        <ele>202</ele>
        <time>2018-04-09T20:11:01Z</time>
      </trkpt>
      <trkpt lat="48.17379" lon="-0.24263">
        <ele>204</ele>
        <time>2018-04-09T20:12:01Z</time>
      </trkpt>
      <trkpt lat="48.17345" lon="-0.24226">
        <ele>204</ele>
        <time>2018-04-09T20:13:01Z</time>
      </trkpt>
      <trkpt lat="48.17323" lon="-0.24215">
        <ele>209</ele>
        <time>2018-04-09T20:14:01Z</time>
      </trkpt>
      <trkpt lat="48.17286" lon="-0.24228">
        <ele>210</ele>
        <time>2018-04-09T20:15:01Z</time>
      </trkpt>
      <trkpt lat="48.17219" lon="-0.24331">
        <ele>217</ele>
        <time>2018-04-09T20:16:01Z</time>
      </trkpt>
      <trkpt lat="48.17065" lon="-0.2461">
        <ele>216</ele>
        <time>2018-04-09T20:17:01Z</time>
      </trkpt>
      <trkpt lat="48.17004" lon="-0.2464">
        <ele>215</ele>
        <time>2018-04-09T20:18:01Z</time>
      </trkpt>
      <trkpt lat="48.16955" lon="-0.24734">
        <ele>210</ele>
        <time>2018-04-09T20:19:01Z</time>
      </trkpt>
      <trkpt lat="48.16878" lon="-0.24904">
        <ele>202</ele>
        <time>2018-04-09T20:20:01Z</time>
      </trkpt>
      <trkpt lat="48.16836" lon="-0.24874">
        <ele>200</ele>
        <time>2018-04-09T20:21:01Z</time>
      </trkpt>
      <trkpt lat="48.16813" lon="-0.25008">
        <ele>197</ele>
        <time>2018-04-09T20:22:01Z</time>
      </trkpt>
      <trkpt lat="48.16801" lon="-0.25112">
        <ele>195</ele>
        <time>2018-04-09T20:23:01Z</time>
      </trkpt>
      <trkpt lat="48.16775" lon="-0.2504">
        <ele>197</ele>
        <time>2018-04-09T20:24:01Z</time>
      </trkpt>
      <trkpt lat="48.16726" lon="-0.24858">
        <ele>204</ele>
        <time>2018-04-09T20:25:01Z</time>
      </trkpt>
      <trkpt lat="48.16706" lon="-0.24817">
        <ele>206</ele>
        <time>2018-04-09T20:26:01Z</time>
      </trkpt>
      <trkpt lat="48.16695" lon="-0.24773">
        <ele>207</ele>
        <time>2018-04-09T20:27:01Z</time>
      </trkpt>
      <trkpt lat="48.16677" lon="-0.24641">
        <ele>211</ele>
        <time>2018-04-09T20:28:01Z</time>
      </trkpt>
      <trkpt lat="48.16654" lon="-0.24545">
        <ele>216</ele>
        <time>2018-04-09T20:29:01Z</time>
      </trkpt>
      <trkpt lat="48.16604" lon="-0.24408">
        <ele>223</ele>
        <time>2018-04-09T20:30:01Z</time>
      </trkpt>
      <trkpt lat="48.16495" lon="-0.24593">
        <ele>225</ele>
        <time>2018-04-09T20:31:01Z</time>
      </trkpt>
      <trkpt lat="48.16408" lon="-0.2469">
        <ele>230</ele>
        <time>2018-04-09T20:32:01Z</time>
      </trkpt>
      <trkpt lat="48.16566" lon="-0.23778">
        <ele>258</ele>
        <time>2018-04-09T20:33:01Z</time>
      </trkpt>
      <trkpt lat="48.1659" lon="-0.23572">
        <ele>268</ele>
        <time>2018-04-09T20:34:01Z</time>
      </trkpt>
      <trkpt lat="48.16598" lon="-0.235">
        <ele>272</ele>
        <time>2018-04-09T20:35:01Z</time>
      </trkpt>
      <trkpt lat="48.1664" lon="-0.23498">
        <ele>270</ele>
        <time>2018-04-09T20:36:01Z</time>
      </trkpt>
      <trkpt lat="48.16742" lon="-0.2341">
        <ele>266</ele>
        <time>2018-04-09T20:37:01Z</time>
      </trkpt>
      <trkpt lat="48.1683" lon="-0.23232">
        <ele>263</ele>
        <time>2018-04-09T20:38:01Z</time>
      </trkpt>
      <trkpt lat="48.16862" lon="-0.23198">
        <ele>260</ele>
        <time>2018-04-09T20:39:01Z</time>
      </trkpt>
      <trkpt lat="48.16883" lon="-0.23135">
        <ele>257</ele>
        <time>2018-04-09T20:40:01Z</time>
      </trkpt>
      <trkpt lat="48.16942" lon="-0.22915">
        <ele>251</ele>
        <time>2018-04-09T20:41:01Z</time>
      </trkpt>
      <trkpt lat="48.16973" lon="-0.2287">
        <ele>251</ele>
        <time>2018-04-09T20:42:01Z</time>
      </trkpt>
      <trkpt lat="48.16983" lon="-0.22804">
        <ele>252</ele>
        <time>2018-04-09T20:43:01Z</time>
      </trkpt>
      <trkpt lat="48.17024" lon="-0.22698">
        <ele>255</ele>
        <time>2018-04-09T20:44:01Z</time>
      </trkpt>
      <trkpt lat="48.17019" lon="-0.22606">
        <ele>250</ele>
        <time>2018-04-09T20:45:01Z</time>
      </trkpt>
      <trkpt lat="48.17021" lon="-0.2257">
        <ele>248</ele>
        <time>2018-04-09T20:46:01Z</time>
      </trkpt>
      <trkpt lat="48.17058" lon="-0.22458">
        <ele>247</ele>
        <time>2018-04-09T20:47:01Z</time>
      </trkpt>
      <trkpt lat="48.17084" lon="-0.22392">
        <ele>247</ele>
        <time>2018-04-09T20:48:01Z</time>
      </trkpt>
      <trkpt lat="48.17116" lon="-0.22344">
        <ele>247</ele>
        <time>2018-04-09T20:49:01Z</time>
      </trkpt>
      <trkpt lat="48.17153" lon="-0.22319">
        <ele>249</ele>
        <time>2018-04-09T20:50:01Z</time>
      </trkpt>
      <trkpt lat="48.17206" lon="-0.22324">
        <ele>251</ele>
        <time>2018-04-09T20:51:01Z</time>
      </trkpt>
      <trkpt lat="48.17218" lon="-0.22286">
        <ele>253</ele>
        <time>2018-04-09T20:52:01Z</time>
      </trkpt>
      <trkpt lat="48.17234" lon="-0.2206">
        <ele>267</ele>
        <time>2018-04-09T20:53:01Z</time>
      </trkpt>
      <trkpt lat="48.17269" lon="-0.21919">
        <ele>273</ele>
        <time>2018-04-09T20:54:01Z</time>
      </trkpt>
      <trkpt lat="48.17244" lon="-0.21842">
        <ele>270</ele>
        <time>2018-04-09T20:55:01Z</time>
      </trkpt>
      <trkpt lat="48.17294" lon="-0.2161">
        <ele>268</ele>
        <time>2018-04-09T20:56:01Z</time>
      </trkpt>
      <trkpt lat="48.1739" lon="-0.21427">
        <ele>277</ele>
        <time>2018-04-09T20:57:01Z</time>
      </trkpt>
      <trkpt lat="48.17467" lon="-0.21394">
        <ele>282</ele>
        <time>2018-04-09T20:58:01Z</time>
      </trkpt>
      <trkpt lat="48.17465" lon="-0.21344">
        <ele>283</ele>
        <time>2018-04-09T20:59:01Z</time>
      </trkpt>
      <trkpt lat="48.17475" lon="-0.21317">
        <ele>285</ele>
        <time>2018-04-09T21:00:01Z</time>
      </trkpt>
      <trkpt lat="48.17472" lon="-0.21294">
        <ele>285</ele>
        <time>2018-04-09T21:01:01Z</time>
      </trkpt>
      <trkpt lat="48.17487" lon="-0.21275">
        <ele>286</ele>
        <time>2018-04-09T21:02:01Z</time>
      </trkpt>
      <trkpt lat="48.1752" lon="-0.21164">
        <ele>286</ele>
        <time>2018-04-09T21:03:01Z</time>
      </trkpt>
      <trkpt lat="48.17517" lon="-0.21133">
        <ele>286</ele>
        <time>2018-04-09T21:04:01Z</time>
      </trkpt>
      <trkpt lat="48.17503" lon="-0.21114">
        <ele>285</ele>
        <time>2018-04-09T21:05:01Z</time>
      </trkpt>
      <trkpt lat="48.17498" lon="-0.21091">
        <ele>283</ele>
        <time>2018-04-09T21:06:01Z</time>
      </trkpt>
      <trkpt lat="48.17518" lon="-0.21045">
        <ele>283</ele>
        <time>2018-04-09T21:07:01Z</time>
      </trkpt>
      <trkpt lat="48.17521" lon="-0.20977">
        <ele>282</ele>
        <time>2018-04-09T21:08:01Z</time>
      </trkpt>
      <trkpt lat="48.17523" lon="-0.2089">
        <ele>286</ele>
        <time>2018-04-09T21:09:01Z</time>
      </trkpt>
      <trkpt lat="48.17529" lon="-0.20814">
        <ele>289</ele>
        <time>2018-04-09T21:10:01Z</time>
      </trkpt>
      <trkpt lat="48.17545" lon="-0.20773">
        <ele>291</ele>
        <time>2018-04-09T21:11:01Z</time>
      </trkpt>
      <trkpt lat="48.17566" lon="-0.20772">
        <ele>292</ele>
        <time>2018-04-09T21:12:01Z</time>
      </trkpt>
      <trkpt lat="48.17587" lon="-0.20638">
        <ele>292</ele>
        <time>2018-04-09T21:13:01Z</time>
      </trkpt>
      <trkpt lat="48.17605" lon="-0.20443">
        <ele>290</ele>
        <time>2018-04-09T21:14:01Z</time>
      </trkpt>
      <trkpt lat="48.17947" lon="-0.20581">
        <ele>252</ele>
        <time>2018-04-09T21:15:01Z</time>
      </trkpt>
      <trkpt lat="48.18296" lon="-0.20745">
        <ele>224</ele>
        <time>2018-04-09T21:16:01Z</time>
      </trkpt>
      <trkpt lat="48.1829" lon="-0.20799">
        <ele>224</ele>
        <time>2018-04-09T21:17:01Z</time>
      </trkpt>
      <trkpt lat="48.18317" lon="-0.20891">
        <ele>221</ele>
        <time>2018-04-09T21:18:01Z</time>
      </trkpt>
      <trkpt lat="48.1832" lon="-0.20963">
        <ele>218</ele>
        <time>2018-04-09T21:19:01Z</time>
      </trkpt>
      <trkpt lat="48.18333" lon="-0.2105">
        <ele>211</ele>
        <time>2018-04-09T21:20:01Z</time>
      </trkpt>
      <trkpt lat="48.18307" lon="-0.21132">
        <ele>209</ele>
        <time>2018-04-09T21:21:01Z</time>
      </trkpt>
      <trkpt lat="48.18349" lon="-0.2125">
        <ele>204</ele>
        <time>2018-04-09T21:22:01Z</time>
      </trkpt>
      <trkpt lat="48.18387" lon="-0.21305">
        <ele>200</ele>
        <time>2018-04-09T21:23:01Z</time>
      </trkpt>
      <trkpt lat="48.18396" lon="-0.21481">
        <ele>196</ele>
        <time>2018-04-09T21:24:01Z</time>
      </trkpt>
      <trkpt lat="48.18367" lon="-0.21541">
        <ele>196</ele>
        <time>2018-04-09T21:25:01Z</time>
      </trkpt>
      <trkpt lat="48.18285" lon="-0.21679">
        <ele>196</ele>
        <time>2018-04-09T21:26:01Z</time>
      </trkpt>
      <trkpt lat="48.18267" lon="-0.2174">
        <ele>198</ele>
        <time>2018-04-09T21:27:01Z</time>
      </trkpt>
      <trkpt lat="48.18264" lon="-0.21807">
        <ele>194</ele>
        <time>2018-04-09T21:28:01Z</time>
      </trkpt>
      <trkpt lat="48.18269" lon="-0.21869">
        <ele>192</ele>
        <time>2018-04-09T21:29:01Z</time>
      </trkpt>
      <trkpt lat="48.18287" lon="-0.21924">
        <ele>189</ele>
        <time>2018-04-09T21:30:01Z</time>
      </trkpt>
      <trkpt lat="48.1829" lon="-0.21972">
        <ele>187</ele>
        <time>2018-04-09T21:31:01Z</time>
      </trkpt>
      <trkpt lat="48.18263" lon="-0.22065">
        <ele>185</ele>
        <time>2018-04-09T21:32:01Z</time>
      </trkpt>
      <trkpt lat="48.1828" lon="-0.22119">
        <ele>180</ele>
        <time>2018-04-09T21:33:01Z</time>
      </trkpt>
      <trkpt lat="48.18256" lon="-0.22212">
        <ele>178</ele>
        <time>2018-04-09T21:34:01Z</time>
      </trkpt>
      <trkpt lat="48.18257" lon="-0.22267">
        <ele>174</ele>
        <time>2018-04-09T21:35:01Z</time>
      </trkpt>
      <trkpt lat="48.18294" lon="-0.22239">
        <ele>176</ele>
        <time>2018-04-09T21:36:01Z</time>
      </trkpt>
      <trkpt lat="48.18321" lon="-0.22243">
        <ele>173</ele>
        <time>2018-04-09T21:37:01Z</time>
      </trkpt>
      <trkpt lat="48.18486" lon="-0.22392">
        <ele>178</ele>
        <time>2018-04-09T21:38:01Z</time>
      </trkpt>
      <trkpt lat="48.18518" lon="-0.22389">
        <ele>179</ele>
        <time>2018-04-09T21:39:01Z</time>
      </trkpt>
      <trkpt lat="48.18735" lon="-0.22203">
        <ele>183</ele>
        <time>2018-04-09T21:40:01Z</time>
      </trkpt>
      <trkpt lat="48.18868" lon="-0.2186">
        <ele>168</ele>
        <time>2018-04-09T21:41:01Z</time>
      </trkpt>
      <trkpt lat="48.1894" lon="-0.21746">
        <ele>166</ele>
        <time>2018-04-09T21:42:01Z</time>
      </trkpt>
      <trkpt lat="48.18991" lon="-0.21688">
        <ele>164</ele>
        <time>2018-04-09T21:43:01Z</time>
      </trkpt>
      <trkpt lat="48.19043" lon="-0.21657">
        <ele>164</ele>
        <time>2018-04-09T21:44:01Z</time>
      </trkpt>
      <trkpt lat="48.1914" lon="-0.21644">
        <ele>164</ele>
        <time>2018-04-09T21:45:01Z</time>
      </trkpt>
      <trkpt lat="48.19241" lon="-0.21664">
        <ele>162</ele>
        <time>2018-04-09T21:46:01Z</time>
      </trkpt>
      <trkpt lat="48.19286" lon="-0.21696">
        <ele>162</ele>
        <time>2018-04-09T21:47:01Z</time>
      </trkpt>
      <trkpt lat="48.19334" lon="-0.21696">
        <ele>165</ele>
        <time>2018-04-09T21:48:01Z</time>
      </trkpt>
      <trkpt lat="48.19393" lon="-0.21636">
        <ele>167</ele>
        <time>2018-04-09T21:49:01Z</time>
      </trkpt>
      <trkpt lat="48.19434" lon="-0.21503">
        <ele>172</ele>
        <time>2018-04-09T21:50:01Z</time>
      </trkpt>
      <trkpt lat="48.19467" lon="-0.21464">
        <ele>175</ele>
        <time>2018-04-09T21:51:01Z</time>
      </trkpt>
      <trkpt lat="48.19501" lon="-0.21451">
        <ele>180</ele>
        <time>2018-04-09T21:52:01Z</time>
      </trkpt>
      <trkpt lat="48.19538" lon="-0.21457">
        <ele>181</ele>
        <time>2018-04-09T21:53:01Z</time>
      </trkpt>
      <trkpt lat="48.19549" lon="-0.21431">
        <ele>182</ele>
        <time>2018-04-09T21:54:01Z</time>
      </trkpt>
    </trkseg>
  </trk>
</gpx>